Time;durP1;ratioP1;P1;durP2;ratioP2;P2;SDS_P1;SDS_P2;PMS_P1;PMS_P2;Temp;Humidity;BMP_temperature;BMP_pressure;BME280_temperature;BME280_humidity;BME280_pressure;Samples;Min_cycle;Max_cycle;Signal;HPM_P1;HPM_P2
2022/03/06 00:00:28;;;;;;;41.75;18.60;;;;;;;-1.82;98.14;102596.69;5074409;28;20032;-82
2022/03/06 00:02:53;;;;;;;34.03;17.65;;;;;;;-1.87;98.45;102593.25;5055862;28;20489;-82
2022/03/06 00:05:19;;;;;;;36.45;17.30;;;;;;;-1.88;98.39;102594.13;5074028;28;20114;-83
2022/03/06 00:07:44;;;;;;;33.92;17.63;;;;;;;-1.85;98.40;102594.09;5055447;28;20069;-82
2022/03/06 00:10:10;;;;;;;35.38;16.67;;;;;;;-1.85;98.86;102589.78;5073210;28;20028;-82
2022/03/06 00:12:35;;;;;;;32.13;17.15;;;;;;;-1.87;99.10;102590.66;5055534;28;20036;-82
2022/03/06 00:15:01;;;;;;;36.10;17.23;;;;;;;-1.90;99.22;102590.69;5073154;28;20382;-81
2022/03/06 00:17:26;;;;;;;30.27;16.63;;;;;;;-1.92;99.24;102600.28;5073611;28;20043;-82
2022/03/06 00:19:51;;;;;;;36.40;18.02;;;;;;;-1.95;99.16;102598.56;5074380;28;20037;-81
2022/03/06 00:22:18;;;;;;;37.15;17.48;;;;;;;-1.97;99.08;102608.13;5075459;28;20074;-82
2022/03/06 00:24:43;;;;;;;35.28;17.23;;;;;;;-1.99;98.81;102602.06;5072802;28;20024;-82
2022/03/06 00:27:09;;;;;;;35.33;17.50;;;;;;;-2.04;98.89;102604.72;5073022;28;20036;-82
2022/03/06 00:29:34;;;;;;;41.30;18.20;;;;;;;-2.07;98.68;102604.75;5073141;28;20393;-82
2022/03/06 00:32:00;;;;;;;39.55;18.35;;;;;;;-2.11;98.68;102610.03;5072360;28;20408;-83
2022/03/06 00:34:25;;;;;;;33.92;18.10;;;;;;;-2.11;98.43;102615.25;5073193;28;20044;-82
2022/03/06 00:36:50;;;;;;;37.33;16.45;;;;;;;-2.14;98.75;102611.75;5084717;28;20032;-78
2022/03/06 00:39:16;;;;;;;36.38;16.80;;;;;;;-2.16;99.05;102610.06;5087164;28;20494;-80
2022/03/06 00:41:41;;;;;;;32.70;15.70;;;;;;;-2.18;98.80;102612.69;5084488;28;20041;-80
2022/03/06 00:44:07;;;;;;;29.50;16.95;;;;;;;-2.22;98.92;102623.19;5067237;28;20096;-80
2022/03/06 00:46:32;;;;;;;34.42;17.35;;;;;;;-2.21;99.03;102617.06;5079310;28;20054;-82
2022/03/06 00:48:57;;;;;;;33.90;18.20;;;;;;;-2.25;99.20;102620.59;5075782;28;20083;-81
2022/03/06 00:51:23;;;;;;;37.42;18.90;;;;;;;-2.25;99.51;102624.06;5073475;28;20078;-81
2022/03/06 00:53:48;;;;;;;39.35;19.10;;;;;;;-2.26;99.34;102632.75;5073638;28;20033;-81
2022/03/06 00:56:13;;;;;;;38.40;18.48;;;;;;;-2.29;99.84;102635.38;5073848;28;20056;-82
2022/03/06 00:58:39;;;;;;;39.25;17.40;;;;;;;-2.32;100.00;102635.41;5073307;28;20044;-82
2022/03/06 01:01:05;;;;;;;32.33;17.00;;;;;;;-2.34;99.94;102632.81;5072777;28;20037;-82
2022/03/06 01:03:31;;;;;;;42.75;19.80;;;;;;;-2.35;100.00;102641.50;5075381;28;20032;-82
2022/03/06 01:05:57;;;;;;;36.70;18.50;;;;;;;-2.29;99.99;102645.81;5076504;28;20028;-81
2022/03/06 01:08:23;;;;;;;41.10;19.42;;;;;;;-2.24;100.00;102640.56;5058930;28;20415;-82
2022/03/06 01:10:50;;;;;;;40.25;18.38;;;;;;;-2.22;100.00;102644.88;5076712;28;20465;-82
2022/03/06 01:13:18;;;;;;;40.88;20.35;;;;;;;-2.13;100.00;102649.16;5075730;28;20064;-82
2022/03/06 01:15:44;;;;;;;39.33;19.50;;;;;;;-2.04;100.00;102648.22;5058223;28;20032;-82
2022/03/06 01:18:10;;;;;;;39.05;19.48;;;;;;;-2.02;100.00;102656.91;5058289;28;20077;-82
2022/03/06 01:20:37;;;;;;;40.97;19.30;;;;;;;-2.02;100.00;102659.50;5076095;28;20461;-82
2022/03/06 01:23:04;;;;;;;38.83;20.05;;;;;;;-2.02;100.00;102660.34;5075858;28;20032;-82
2022/03/06 01:25:30;;;;;;;35.38;18.88;;;;;;;-2.05;100.00;102656.94;5076175;28;20161;-81
2022/03/06 01:27:55;;;;;;;34.42;18.05;;;;;;;-2.07;100.00;102658.69;5076936;28;20245;-82
2022/03/06 01:30:22;;;;;;;33.13;18.75;;;;;;;-2.09;100.00;102661.31;5076838;28;20076;-82
2022/03/06 01:32:49;;;;;;;41.70;19.10;;;;;;;-2.09;100.00;102663.94;5075809;28;20464;-82
2022/03/06 01:35:15;;;;;;;36.08;18.73;;;;;;;-2.11;100.00;102664.81;5058407;28;20040;-82
2022/03/06 01:37:40;;;;;;;37.47;19.60;;;;;;;-2.14;100.00;102669.16;5075847;28;20032;-83
2022/03/06 01:40:08;;;;;;;38.30;19.83;;;;;;;-2.17;100.00;102671.78;5058391;28;20040;-83
2022/03/06 01:42:37;;;;;;;39.90;21.05;;;;;;;-2.14;100.00;102673.50;5076942;28;20119;-83
2022/03/06 01:45:03;;;;;;;42.00;20.50;;;;;;;-2.14;100.00;102663.94;5075270;28;20078;-82
2022/03/06 01:47:35;;;;;;;38.90;20.63;;;;;;;-2.17;100.00;102673.53;5075967;28;20123;-83
2022/03/06 01:50:06;;;;;;;40.55;19.88;;;;;;;-2.23;100.00;102670.97;5074978;28;20032;-79
2022/03/06 01:52:31;;;;;;;44.25;20.88;;;;;;;-2.27;100.00;102677.09;5075868;28;20036;-83
2022/03/06 01:54:57;;;;;;;39.55;20.33;;;;;;;-2.36;100.00;102663.25;5075127;28;20039;-82
2022/03/06 01:57:23;;;;;;;41.92;21.67;;;;;;;-2.37;100.00;102674.56;5075001;28;20039;-82
2022/03/06 01:59:49;;;;;;;47.25;22.88;;;;;;;-2.40;100.00;102669.38;5075139;28;20036;-83
2022/03/06 02:02:14;;;;;;;46.13;24.25;;;;;;;-2.33;100.00;102672.78;5075551;28;20054;-82
2022/03/06 02:04:40;;;;;;;48.30;23.58;;;;;;;-2.26;100.00;102679.69;5074995;28;20033;-82
2022/03/06 02:07:05;;;;;;;50.05;24.00;;;;;;;-2.23;100.00;102679.66;5075163;28;20036;-81
2022/03/06 02:09:31;;;;;;;44.17;24.48;;;;;;;-2.22;100.00;102676.19;5075052;28;20025;-82
2022/03/06 02:14:40;;;;;;;48.55;25.48;;;;;;;-2.08;100.00;102667.38;5075427;28;20051;-82
2022/03/06 02:17:05;;;;;;;51.60;25.27;;;;;;;-2.03;100.00;102666.47;5057033;28;20028;-82
2022/03/06 02:19:31;;;;;;;47.45;26.52;;;;;;;-2.02;100.00;102665.56;5040757;28;20075;-83
2022/03/06 02:21:56;;;;;;;51.95;26.55;;;;;;;-1.99;100.00;102662.94;5078816;28;20043;-82
2022/03/06 02:24:21;;;;;;;49.03;26.20;;;;;;;-1.92;100.00;102670.75;5074607;28;20452;-84
2022/03/06 02:26:47;;;;;;;53.58;26.23;;;;;;;-1.89;100.00;102671.56;5074844;28;20113;-82
2022/03/06 02:29:12;;;;;;;46.20;25.90;;;;;;;-1.83;100.00;102678.47;5074303;28;20106;-81
2022/03/06 02:31:39;;;;;;;54.08;26.73;;;;;;;-1.72;100.00;102681.84;5074256;28;20056;-81
2022/03/06 02:34:05;;;;;;;46.83;25.63;;;;;;;-1.63;100.00;102668.72;5074610;28;20059;-77
2022/03/06 02:36:31;;;;;;;51.50;26.85;;;;;;;-1.52;100.00;102673.81;5074483;28;20037;-81
2022/03/06 02:38:56;;;;;;;46.40;25.63;;;;;;;-1.40;100.00;102675.44;5074279;28;20033;-81
2022/03/06 02:41:22;;;;;;;43.28;25.35;;;;;;;-1.29;100.00;102665.72;5040090;28;20044;-81
2022/03/06 02:43:47;;;;;;;45.83;24.73;;;;;;;-1.18;100.00;102669.94;5074607;28;20033;-81
2022/03/06 02:46:12;;;;;;;44.33;25.30;;;;;;;-1.14;100.00;102672.50;5074341;28;20458;-80
2022/03/06 02:48:38;;;;;;;44.55;24.80;;;;;;;-1.07;100.00;102673.31;5074084;28;20044;-81
2022/03/06 02:51:03;;;;;;;36.65;23.67;;;;;;;-1.03;100.00;102666.28;5073852;28;20033;-81
2022/03/06 02:53:28;;;;;;;44.38;24.88;;;;;;;-1.00;100.00;102676.69;5074048;28;20068;-80
2022/03/06 02:55:54;;;;;;;40.53;24.38;;;;;;;-0.98;100.00;102675.78;5074331;28;20029;-82
2022/03/06 02:58:21;;;;;;;41.38;25.10;;;;;;;-0.95;100.00;102677.53;5074847;28;20405;-82
2022/03/06 03:00:47;;;;;;;38.97;24.05;;;;;;;-0.89;100.00;102682.66;5073725;28;20038;-82
2022/03/06 03:03:12;;;;;;;39.60;23.27;;;;;;;-0.82;100.00;102676.47;5074341;28;20036;-82
2022/03/06 03:05:38;;;;;;;36.60;23.55;;;;;;;-0.76;100.00;102686.84;5073585;28;20464;-82
2022/03/06 03:08:04;;;;;;;41.30;24.38;;;;;;;-0.72;100.00;102679.81;5073814;28;20058;-82
2022/03/06 03:10:29;;;;;;;38.47;24.65;;;;;;;-0.69;99.58;102677.16;5073915;28;20404;-82
2022/03/06 03:12:55;;;;;;;41.40;24.38;;;;;;;-0.66;99.30;102686.72;5074021;28;20032;-82
2022/03/06 03:15:21;;;;;;;38.28;24.13;;;;;;;-0.63;98.77;102689.28;5073820;28;20036;-82
2022/03/06 03:17:47;;;;;;;37.95;23.52;;;;;;;-0.64;98.23;102698.00;5073855;28;20032;-81
2022/03/06 03:20:13;;;;;;;38.80;23.05;;;;;;;-0.66;97.65;102692.78;5073380;28;20514;-80
2022/03/06 03:22:39;;;;;;;34.63;22.92;;;;;;;-0.69;97.38;102690.22;5073355;28;20064;-81
2022/03/06 03:25:05;;;;;;;36.08;22.45;;;;;;;-0.74;96.74;102699.91;5072894;28;20398;-81
2022/03/06 03:27:30;;;;;;;37.78;22.42;;;;;;;-0.81;96.50;102695.63;5073827;28;20086;-81
2022/03/06 03:29:56;;;;;;;34.55;22.67;;;;;;;-0.90;95.97;102691.38;5073753;28;20056;-81
2022/03/06 03:32:21;;;;;;;36.88;22.38;;;;;;;-1.01;95.74;102701.97;5073479;28;20036;-80
2022/03/06 03:34:47;;;;;;;30.60;21.55;;;;;;;-1.11;95.71;102695.13;5072985;28;20056;-83
2022/03/06 03:37:12;;;;;;;35.30;21.58;;;;;;;-1.19;96.00;102704.81;5073312;28;20032;-77
2022/03/06 03:39:37;;;;;;;31.80;21.83;;;;;;;-1.26;96.03;102698.78;5072867;28;20032;-80
2022/03/06 03:42:03;;;;;;;35.28;22.00;;;;;;;-1.32;96.45;102698.84;5073311;28;20418;-80
2022/03/06 03:44:28;;;;;;;34.33;22.80;;;;;;;-1.35;96.37;102704.09;5073646;28;20039;-81
2022/03/06 03:46:53;;;;;;;39.60;22.42;;;;;;;-1.35;97.25;102704.97;5073279;28;20567;-80
2022/03/06 03:49:19;;;;;;;37.10;23.00;;;;;;;-1.34;97.40;102705.84;5073096;28;20385;-81
2022/03/06 03:51:44;;;;;;;34.53;23.58;;;;;;;-1.32;97.37;102714.53;5073577;28;20111;-80
2022/03/06 03:54:10;;;;;;;40.03;24.27;;;;;;;-1.31;97.60;102709.28;5073665;28;20075;-81
2022/03/06 03:56:35;;;;;;;40.63;23.77;;;;;;;-1.29;97.73;102698.81;5073229;28;20025;-81
2022/03/06 03:59:01;;;;;;;35.70;22.80;;;;;;;-1.28;98.15;102700.56;5072924;28;20040;-81
2022/03/06 04:01:26;;;;;;;38.60;23.23;;;;;;;-1.31;97.87;102695.38;5073053;28;20032;-80
2022/03/06 04:03:52;;;;;;;31.95;22.40;;;;;;;-1.38;97.37;102717.19;5072770;28;20033;-81
2022/03/06 04:06:17;;;;;;;32.45;21.98;;;;;;;-1.47;97.05;102710.31;5073081;28;20033;-77
2022/03/06 04:08:42;;;;;;;34.17;21.73;;;;;;;-1.59;97.05;102698.25;5073499;28;20115;-81
2022/03/06 04:11:08;;;;;;;32.05;21.48;;;;;;;-1.71;96.35;102706.22;5073434;28;20376;-81
2022/03/06 04:13:34;;;;;;;31.48;20.67;;;;;;;-1.85;96.18;102699.38;5072842;28;20130;-80
2022/03/06 04:16:00;;;;;;;33.30;21.65;;;;;;;-1.96;96.38;102709.03;5072910;28;20421;-81
2022/03/06 04:18:25;;;;;;;35.55;22.63;;;;;;;-2.08;96.25;102712.59;5072883;28;20033;-80
2022/03/06 04:20:50;;;;;;;34.13;21.90;;;;;;;-2.19;96.38;102712.69;5054792;28;20039;-81
2022/03/06 04:23:16;;;;;;;32.92;22.20;;;;;;;-2.29;96.64;102715.38;5072485;28;20043;-81
2022/03/06 04:25:41;;;;;;;33.63;21.10;;;;;;;-2.37;96.96;102718.03;5072904;28;20051;-82
2022/03/06 04:28:07;;;;;;;36.72;23.50;;;;;;;-2.45;96.86;102710.22;5053464;28;20056;-82
2022/03/06 04:30:33;;;;;;;36.83;22.05;;;;;;;-2.53;97.16;102719.84;5054751;28;20075;-81
2022/03/06 04:32:59;;;;;;;37.85;22.35;;;;;;;-2.56;97.26;102715.50;5072792;28;20025;-81
2022/03/06 04:35:24;;;;;;;38.70;23.73;;;;;;;-2.62;97.66;102725.13;5054552;28;20035;-81
2022/03/06 04:37:50;;;;;;;35.28;21.02;;;;;;;-2.67;97.69;102726.00;5074212;28;20115;-81
2022/03/06 04:40:16;;;;;;;35.17;21.55;;;;;;;-2.74;97.46;102734.72;5076707;28;20487;-81
2022/03/06 04:42:41;;;;;;;38.20;22.02;;;;;;;-2.78;97.49;102730.38;5076686;28;20540;-82
2022/03/06 04:45:08;;;;;;;36.47;22.75;;;;;;;-2.81;97.99;102730.41;5076178;28;20418;-81
2022/03/06 04:47:33;;;;;;;32.60;21.08;;;;;;;-2.85;98.30;102733.91;5076510;28;20036;-80
2022/03/06 04:49:59;;;;;;;34.00;21.52;;;;;;;-2.93;98.41;102740.88;5076439;28;20419;-81
2022/03/06 04:52:24;;;;;;;35.42;21.70;;;;;;;-2.96;97.82;102741.75;5077091;28;20129;-79
2022/03/06 04:54:49;;;;;;;36.08;21.88;;;;;;;-2.94;97.97;102749.56;5076218;28;20047;-82
2022/03/06 04:57:15;;;;;;;32.30;21.65;;;;;;;-2.94;97.35;102752.16;5076436;28;20039;-82
2022/03/06 04:59:40;;;;;;;34.88;21.27;;;;;;;-2.96;97.78;102749.56;5076211;28;20033;-83
2022/03/06 05:02:06;;;;;;;35.88;22.00;;;;;;;-2.93;96.99;102756.50;5076276;28;20059;-81
2022/03/06 05:04:32;;;;;;;34.88;21.92;;;;;;;-2.87;97.24;102762.56;5075967;28;20035;-80
2022/03/06 05:06:57;;;;;;;34.00;21.70;;;;;;;-2.77;97.73;102766.00;5076185;28;20045;-81
2022/03/06 05:09:22;;;;;;;39.72;23.25;;;;;;;-2.66;98.08;102765.94;5076078;28;20037;-79
2022/03/06 05:11:48;;;;;;;35.28;21.55;;;;;;;-2.63;98.48;102763.34;5075853;28;20050;-81
2022/03/06 05:14:13;;;;;;;41.58;23.13;;;;;;;-2.60;98.29;102768.53;5076350;28;20395;-81
2022/03/06 05:16:39;;;;;;;38.05;23.00;;;;;;;-2.62;98.69;102765.06;5076034;28;20029;-81
2022/03/06 05:19:04;;;;;;;35.20;21.58;;;;;;;-2.66;98.47;102763.34;5075884;28;20044;-82
2022/03/06 05:21:30;;;;;;;32.28;20.85;;;;;;;-2.75;98.05;102766.84;5075969;28;20028;-80
2022/03/06 05:23:55;;;;;;;39.20;23.42;;;;;;;-2.83;97.74;102764.28;5075701;28;20085;-81
2022/03/06 05:26:21;;;;;;;36.97;23.25;;;;;;;-2.86;97.87;102760.84;5058279;28;20050;-82
2022/03/06 05:28:46;;;;;;;33.78;21.45;;;;;;;-2.90;98.15;102759.97;5076061;28;20060;-82
2022/03/06 05:31:11;;;;;;;36.83;22.00;;;;;;;-2.92;98.20;102759.13;5075469;28;20036;-81
2022/03/06 05:33:37;;;;;;;31.10;19.75;;;;;;;-2.99;98.31;102770.41;5075991;28;20120;-81
2022/03/06 05:36:03;;;;;;;33.80;21.40;;;;;;;-3.05;98.52;102765.22;5076655;28;20389;-81
2022/03/06 05:38:29;;;;;;;37.08;21.77;;;;;;;-3.12;98.30;102772.22;5075872;28;20108;-79
2022/03/06 05:40:54;;;;;;;36.22;21.48;;;;;;;-3.15;98.25;102776.53;5076246;28;20488;-81
2022/03/06 05:43:20;;;;;;;36.47;20.63;;;;;;;-3.17;98.68;102773.09;5075438;28;20021;-81
2022/03/06 05:45:50;;;;;;;29.60;20.23;;;;;;;-3.15;98.67;102777.44;5075685;28;20071;-81
2022/03/06 05:48:16;;;;;;;31.33;20.27;;;;;;;-3.16;98.92;102785.22;5075420;28;20063;-82
2022/03/06 05:50:41;;;;;;;35.67;20.10;;;;;;;-3.21;99.03;102793.91;5075702;28;20111;-82
2022/03/06 05:53:08;;;;;;;33.05;19.75;;;;;;;-3.26;99.06;102795.66;5075628;28;20575;-81
2022/03/06 05:55:33;;;;;;;30.20;20.20;;;;;;;-3.31;99.16;102792.19;5076033;28;20119;-80
2022/03/06 05:57:59;;;;;;;31.67;19.77;;;;;;;-3.32;99.25;102794.81;5057980;28;20075;-83
2022/03/06 06:00:24;;;;;;;32.60;20.60;;;;;;;-3.37;99.14;102797.41;5075974;28;20111;-81
2022/03/06 06:02:50;;;;;;;30.90;18.55;;;;;;;-3.40;98.85;102806.09;5076114;28;20032;-81
2022/03/06 06:05:15;;;;;;;35.70;20.73;;;;;;;-3.35;99.25;102808.69;5075156;28;20028;-81
2022/03/06 06:07:41;;;;;;;32.05;20.52;;;;;;;-3.32;98.99;102806.06;5075551;28;20029;-81
2022/03/06 06:10:08;;;;;;;30.70;19.45;;;;;;;-3.29;99.48;102826.91;5057414;28;20032;-81
2022/03/06 06:12:33;;;;;;;26.73;18.25;;;;;;;-3.19;99.19;102822.56;5074806;28;20032;-80
2022/03/06 06:14:59;;;;;;;29.50;18.42;;;;;;;-3.11;98.97;102825.16;5075067;28;20514;-81
2022/03/06 06:17:24;;;;;;;33.58;20.63;;;;;;;-3.04;99.19;102832.09;5056925;28;20025;-83
2022/03/06 06:19:50;;;;;;;29.98;20.90;;;;;;;-3.01;99.48;102830.34;5074681;28;20032;-80
2022/03/06 06:22:15;;;;;;;34.97;21.70;;;;;;;-2.97;99.09;102825.13;5075076;28;20037;-81
2022/03/06 06:24:41;;;;;;;34.67;20.05;;;;;;;-2.93;99.14;102832.06;5074286;28;20090;-81
2022/03/06 06:27:06;;;;;;;32.83;20.27;;;;;;;-2.92;99.25;102829.44;5056998;28;20036;-83
2022/03/06 06:29:32;;;;;;;31.88;20.35;;;;;;;-2.87;99.26;102834.66;5074164;28;20569;-82
2022/03/06 06:31:57;;;;;;;33.95;20.27;;;;;;;-2.84;98.93;102839.84;5074010;28;20389;-81
2022/03/06 06:34:23;;;;;;;28.98;20.55;;;;;;;-2.83;98.91;102834.63;5074407;28;20362;-81
2022/03/06 06:36:49;;;;;;;29.20;19.77;;;;;;;-2.81;98.20;102841.59;5074225;28;20114;-80
2022/03/06 06:39:14;;;;;;;30.00;18.73;;;;;;;-2.83;98.44;102847.66;5074738;28;20036;-81
2022/03/06 06:41:41;;;;;;;29.65;18.90;;;;;;;-2.83;97.98;102845.06;5074232;28;20066;-81
2022/03/06 06:44:07;;;;;;;28.15;19.48;;;;;;;-2.81;98.42;102844.19;5074305;28;20036;-81
2022/03/06 06:46:33;;;;;;;31.38;19.38;;;;;;;-2.80;98.57;102846.78;5074374;28;20036;-81
2022/03/06 06:48:59;;;;;;;30.52;18.77;;;;;;;-2.79;98.37;102848.53;5073689;28;20075;-81
2022/03/06 06:51:25;;;;;;;31.25;19.50;;;;;;;-2.73;98.55;102852.84;5073847;28;20112;-81
2022/03/06 06:53:50;;;;;;;29.85;19.17;;;;;;;-2.66;98.60;102858.06;5073110;28;20044;-81
2022/03/06 06:56:16;;;;;;;26.38;18.27;;;;;;;-2.57;98.84;102861.50;5073317;28;20094;-81
2022/03/06 06:58:41;;;;;;;33.25;20.35;;;;;;;-2.51;98.94;102867.56;5072861;28;20039;-81
2022/03/06 07:01:07;;;;;;;30.58;18.58;;;;;;;-2.38;98.80;102870.13;5072259;28;20527;-81
2022/03/06 07:03:32;;;;;;;29.75;18.50;;;;;;;-2.32;98.58;102870.94;5055308;28;20119;-81
2022/03/06 07:05:58;;;;;;;25.58;18.13;;;;;;;-2.23;98.22;102877.03;5073281;28;20111;-81
2022/03/06 07:08:24;;;;;;;27.77;18.23;;;;;;;-2.17;97.84;102875.25;5073268;28;20029;-81
2022/03/06 07:10:49;;;;;;;24.67;16.58;;;;;;;-2.11;97.64;102876.97;5072353;28;20082;-81
2022/03/06 07:13:15;;;;;;;27.50;16.02;;;;;;;-2.03;97.63;102871.69;5072707;28;20038;-81
2022/03/06 07:15:41;;;;;;;23.45;15.38;;;;;;;-1.92;97.54;102882.09;5054630;28;20126;-79
2022/03/06 07:18:06;;;;;;;24.50;14.98;;;;;;;-1.79;97.17;102887.22;5038033;28;20052;-81
2022/03/06 07:20:32;;;;;;;23.35;14.32;;;;;;;-1.66;96.90;102890.59;5072892;28;20025;-81
2022/03/06 07:22:57;;;;;;;22.75;14.23;;;;;;;-1.51;96.40;102899.22;5072494;28;20107;-81
2022/03/06 07:25:23;;;;;;;21.20;14.02;;;;;;;-1.42;96.03;102897.44;5054520;28;20041;-81
2022/03/06 07:27:48;;;;;;;23.88;14.07;;;;;;;-1.27;95.58;102906.00;5054371;28;20071;-81
2022/03/06 07:30:14;;;;;;;18.25;12.85;;;;;;;-1.16;95.18;102911.16;5072716;28;20044;-81
2022/03/06 07:32:46;;;;;;;17.52;12.63;;;;;;;-1.05;94.37;102908.47;5072980;28;20036;-80
2022/03/06 07:35:13;;;;;;;19.40;12.05;;;;;;;-0.92;94.26;102910.94;5072224;28;20107;-81
2022/03/06 07:37:39;;;;;;;16.98;11.90;;;;;;;-0.78;93.62;102909.94;5054601;28;20033;-81
2022/03/06 07:40:05;;;;;;;18.08;11.73;;;;;;;-0.63;92.78;102908.91;5072991;28;20036;-82
2022/03/06 07:42:31;;;;;;;14.45;10.55;;;;;;;-0.49;91.78;102911.38;5054310;28;20350;-82
2022/03/06 07:44:56;;;;;;;16.15;11.15;;;;;;;-0.36;90.97;102913.84;5072717;28;20040;-82
2022/03/06 07:47:22;;;;;;;16.17;10.43;;;;;;;-0.21;89.92;102917.16;5073378;28;20028;-81
2022/03/06 07:49:47;;;;;;;12.60;9.38;;;;;;;-0.06;89.30;102918.72;5072242;28;20380;-81
2022/03/06 07:52:12;;;;;;;14.60;10.07;;;;;;;0.07;88.11;102920.28;5072294;28;20359;-83
2022/03/06 07:54:38;;;;;;;14.57;9.57;;;;;;;0.22;87.03;102921.84;5072906;28;20403;-81
2022/03/06 07:57:03;;;;;;;14.00;9.63;;;;;;;0.38;86.67;102919.03;5072469;28;20032;-83
2022/03/06 07:59:29;;;;;;;14.68;8.27;;;;;;;0.51;85.60;102917.97;5072192;28;20036;-83
2022/03/06 08:01:54;;;;;;;13.52;8.13;;;;;;;0.64;84.24;102918.63;5072298;28;20029;-84
2022/03/06 08:04:20;;;;;;;10.15;7.85;;;;;;;0.75;83.19;102926.31;5054876;28;20044;-85
2022/03/06 08:06:48;;;;;;;12.23;7.90;;;;;;;0.92;83.24;102923.44;5055053;28;20094;-85
2022/03/06 08:09:15;;;;;;;9.82;7.57;;;;;;;1.04;81.73;102931.06;5073055;28;20032;-84
2022/03/06 08:11:40;;;;;;;13.05;8.35;;;;;;;1.21;81.70;102941.28;5054269;28;20444;-79
2022/03/06 08:14:06;;;;;;;13.38;7.55;;;;;;;1.34;80.16;102939.28;5071888;28;20166;-80
2022/03/06 08:16:31;;;;;;;8.80;6.82;;;;;;;1.49;79.32;102939.00;5072552;28;20035;-79
2022/03/06 08:18:56;;;;;;;12.35;6.85;;;;;;;1.63;78.92;102935.25;5072769;28;20036;-79
2022/03/06 08:21:22;;;;;;;12.10;6.88;;;;;;;1.77;77.79;102944.59;5071691;28;20108;-79
2022/03/06 08:23:49;;;;;;;13.82;7.63;;;;;;;1.89;76.83;102940.00;5071901;28;20028;-78
2022/03/06 08:26:15;;;;;;;13.68;6.85;;;;;;;2.01;75.43;102945.00;5072245;28;20032;-79
2022/03/06 08:28:40;;;;;;;8.75;6.57;;;;;;;2.14;75.32;102945.59;5071596;28;20045;-82
2022/03/06 08:31:06;;;;;;;8.73;6.38;;;;;;;2.32;75.43;102951.38;5036938;28;20051;-81
2022/03/06 08:33:31;;;;;;;14.40;6.85;;;;;;;2.50;75.06;102953.56;5071824;28;20083;-80
2022/03/06 08:35:57;;;;;;;11.70;6.13;;;;;;;2.61;72.63;102945.44;5071884;28;20040;-80
2022/03/06 08:38:22;;;;;;;6.80;5.68;;;;;;;2.77;72.74;102956.47;5072037;28;20032;-82
2022/03/06 08:40:47;;;;;;;9.23;6.13;;;;;;;2.95;71.59;102950.72;5054103;28;20032;-79
2022/03/06 08:43:13;;;;;;;10.10;6.10;;;;;;;3.15;71.28;102947.63;5071923;28;20028;-80
2022/03/06 08:45:39;;;;;;;7.40;5.80;;;;;;;3.13;68.33;102957.28;5071763;28;20407;-87
2022/03/06 08:48:04;;;;;;;11.40;6.10;;;;;;;3.33;69.10;102956.81;5054212;28;20037;-83
2022/03/06 08:50:30;;;;;;;9.35;5.93;;;;;;;3.36;68.51;102961.13;5072003;28;20052;-78
2022/03/06 08:52:55;;;;;;;8.50;5.40;;;;;;;3.58;67.90;102956.13;5071837;28;20111;-81
2022/03/06 08:55:21;;;;;;;9.48;5.75;;;;;;;3.94;66.03;102948.13;5054243;28;20465;-82
2022/03/06 08:57:49;;;;;;;7.60;5.55;;;;;;;4.31;65.50;102957.56;5053979;28;20036;-81
2022/03/06 09:00:15;;;;;;;8.02;5.30;;;;;;;4.84;62.64;102956.78;5071972;28;20116;-79
2022/03/06 09:02:40;;;;;;;9.15;5.45;;;;;;;5.62;60.10;102958.53;5075083;28;20111;-82
2022/03/06 09:05:06;;;;;;;9.55;5.60;;;;;;;6.65;56.74;102963.53;5071569;28;20041;-85
2022/03/06 09:07:31;;;;;;;10.20;5.63;;;;;;;7.94;52.66;102957.13;5072190;28;20054;-82
2022/03/06 09:09:57;;;;;;;9.48;4.97;;;;;;;8.96;49.96;102955.84;5071996;28;20029;-84
2022/03/06 09:12:26;;;;;;;7.00;5.00;;;;;;;10.27;46.55;102955.19;5071940;28;20440;-82
2022/03/06 09:14:55;;;;;;;6.07;4.50;;;;;;;11.16;42.26;102947.44;5072260;28;20090;-87
2022/03/06 09:17:20;;;;;;;8.20;4.85;;;;;;;11.47;40.75;102958.94;5072417;28;20067;-83
2022/03/06 09:19:46;;;;;;;9.95;5.22;;;;;;;11.62;40.01;102957.13;5054402;28;20037;-79
2022/03/06 09:22:11;;;;;;;7.32;4.25;;;;;;;11.54;39.62;102965.63;5072707;28;20029;-85
2022/03/06 09:24:39;;;;;;;5.22;3.72;;;;;;;11.02;39.13;102963.41;5074393;28;20036;-84
2022/03/06 09:27:05;;;;;;;10.30;4.22;;;;;;;10.92;39.36;102963.06;5075931;28;20056;-84
2022/03/06 09:29:30;;;;;;;6.88;4.30;;;;;;;11.13;39.93;102957.44;5077227;28;20454;-80
2022/03/06 09:31:56;;;;;;;5.03;3.78;;;;;;;11.70;38.88;102967.31;5079033;28;20096;-77
2022/03/06 09:34:22;;;;;;;6.57;4.28;;;;;;;11.65;38.69;102976.47;5086740;28;20039;-79
2022/03/06 09:36:47;;;;;;;6.65;4.55;;;;;;;12.13;38.06;102964.69;5083978;28;20044;-81
2022/03/06 09:39:13;;;;;;;5.40;4.20;;;;;;;12.13;37.42;102965.53;5082063;28;20496;-80
2022/03/06 09:41:39;;;;;;;10.55;4.20;;;;;;;11.92;37.95;102961.53;5075743;28;20062;-80
2022/03/06 09:44:13;;;;;;;5.30;3.88;;;;;;;11.76;36.87;102965.16;5075073;28;20033;-82
2022/03/06 09:46:39;;;;;;;5.85;4.22;;;;;;;12.26;36.74;102956.75;5075022;28;20115;-80
2022/03/06 09:49:06;;;;;;;7.45;3.92;;;;;;;12.62;36.51;102958.84;5075247;28;20040;-80
2022/03/06 09:51:38;;;;;;;4.88;4.32;;;;;;;12.79;36.26;102960.38;5074850;28;20024;-82
2022/03/06 09:54:04;;;;;;;9.63;3.78;;;;;;;13.28;35.14;102956.22;5057280;28;20510;-78
2022/03/06 09:56:29;;;;;;;7.50;3.90;;;;;;;13.93;34.24;102959.78;5075075;28;20052;-80
2022/03/06 09:58:54;;;;;;;10.55;4.15;;;;;;;13.52;33.63;102963.53;5074594;28;20063;-82
2022/03/06 10:01:20;;;;;;;7.63;3.88;;;;;;;13.81;33.82;102956.16;5074967;28;20417;-79
2022/03/06 10:03:45;;;;;;;6.18;3.97;;;;;;;13.49;33.56;102959.25;5074917;28;20052;-81
2022/03/06 10:06:11;;;;;;;7.85;4.05;;;;;;;12.63;34.12;102965.03;5074545;28;20024;-80
2022/03/06 10:08:36;;;;;;;6.68;4.63;;;;;;;13.31;33.40;102969.38;5074457;28;20032;-81
2022/03/06 10:11:08;;;;;;;6.85;4.30;;;;;;;13.28;32.18;102960.72;5074392;28;20410;-78
2022/03/06 10:13:39;;;;;;;9.20;4.10;;;;;;;13.02;33.10;102964.19;5074355;28;20058;-81
2022/03/06 10:16:19;;;;;;;3.97;3.58;;;;;;;12.75;34.16;102969.56;5074439;28;20082;-77
2022/03/06 10:18:48;;;;;;;7.70;4.05;;;;;;;13.27;33.52;102964.34;5074503;28;20115;-80
2022/03/06 10:21:23;;;;;;;4.70;3.83;;;;;;;12.56;33.63;102964.56;5073965;28;20047;-79
2022/03/06 10:23:57;;;;;;;6.95;3.92;;;;;;;13.25;33.04;102972.47;5074620;28;20029;-82
2022/03/06 10:26:28;;;;;;;9.07;4.78;;;;;;;13.28;32.46;102958.88;5074079;28;20110;-81
2022/03/06 10:29:11;;;;;;;5.88;3.90;;;;;;;13.20;32.96;102972.78;5083668;27;1390211;-78
2022/03/06 10:31:37;;;;;;;5.30;3.88;;;;;;;13.42;32.69;102978.50;5109634;28;20073;-79
2022/03/06 10:34:08;;;;;;;6.93;4.15;;;;;;;13.29;32.55;102982.00;5109332;28;20031;-78
2022/03/06 10:36:45;;;;;;;6.40;4.00;;;;;;;13.34;33.77;102989.72;5109351;28;20437;-83
2022/03/06 10:39:20;;;;;;;8.45;3.95;;;;;;;14.28;31.76;102992.03;5108997;28;20438;-81
2022/03/06 10:41:51;;;;;;;5.03;4.43;;;;;;;13.70;31.08;102988.16;5109796;28;20107;-80
2022/03/06 10:44:18;;;;;;;5.13;3.97;;;;;;;13.77;31.63;102986.75;5108910;28;20434;-83
2022/03/06 10:46:58;;;;;;;7.47;4.47;;;;;;;13.52;32.16;102985.78;5108883;28;20067;-81
2022/03/06 10:49:26;;;;;;;8.00;4.70;;;;;;;13.91;31.12;102983.09;5109287;28;20027;-81
2022/03/06 10:51:51;;;;;;;5.00;3.90;;;;;;;13.21;32.48;102984.31;5109010;28;20081;-82
2022/03/06 10:54:18;;;;;;;5.03;4.35;;;;;;;13.00;32.45;102974.16;5109045;28;20031;-77
2022/03/06 10:56:49;;;;;;;6.15;4.93;;;;;;;12.42;33.57;102977.97;5108375;28;20031;-79
2022/03/06 10:59:21;;;;;;;4.93;4.20;;;;;;;12.92;34.76;102973.78;5108487;28;20028;-79
2022/03/06 11:01:48;;;;;;;5.93;4.75;;;;;;;13.14;32.65;102983.91;5108487;28;20070;-78
2022/03/06 11:04:18;;;;;;;6.20;4.63;;;;;;;12.65;34.32;102982.66;5107632;28;20082;-80
2022/03/06 11:06:45;;;;;;;6.88;5.20;;;;;;;13.29;32.32;102982.00;5108423;28;20032;-75
2022/03/06 11:09:13;;;;;;;6.70;4.25;;;;;;;12.66;32.86;102978.19;5108265;28;20047;-77